PWSweather.com
Personal Weather Stations
Station Observations
ELGHEKO
El Gheko Neighborhood Association, Tucson, AZ 85710

El Gheko Neighborhood AssociationTucson, AZ 85710

Lat: 32.226108, Lon: -110.84443

Elevation: 2598

Station Type: Davis 6153 Vantage Pro 2

http://www.elgheko.us

High Low Average
Temperature 98.6°F37.0°C 75.2°F24.0°C 86.8°F30.4°C
Dew Point 60.4°F15.8°C 48.8°F9.3°C 55.3°F12.9°C
Winds 9.0 mph 14.5 kmh Calm Calm 4.0 mph SW6.4 kmh SW
Wind Gusts 18.0 mph29.0 kmh -- 8.0 mph12.9 kmh
Humidity 53% 21% 36%
Pressure 29.74 in1007.1 mb 29.57 in1001.4 mb -
Precipitation 0.00 in0.0 mm - -
Hour Temp Dew Point Humidity Winds Wind Gusts Pressure Precip Precip Rate Daily Precip Total
12:00 AM 84.0°F28.9°C 53.4°F11.9°C 35% 1.0 mph SSW1.6 kmh SSW 2.0 mph3.2 kmh 29.69 in1005.4 mb 0.00 in0.0 mm 0.00 in0.0 mm 0.00 in0.0 mm
12:05 AM 83.9°F28.8°C 54.1°F12.3°C 36% 1.0 mph SSW1.6 kmh SSW 3.0 mph4.8 kmh 29.69 in1005.4 mb 0.00 in0.0 mm 0.00 in0.0 mm 0.00 in0.0 mm
12:10 AM 83.6°F28.7°C 54.6°F12.6°C 37% 2.0 mph S3.2 kmh S 4.0 mph6.4 kmh 29.69 in1005.4 mb 0.00 in0.0 mm 0.00 in0.0 mm 0.00 in0.0 mm
12:15 AM 83.4°F28.6°C 55.1°F12.8°C 38% 2.0 mph S3.2 kmh S 6.0 mph9.7 kmh 29.69 in1005.4 mb 0.00 in0.0 mm 0.00 in0.0 mm 0.00 in0.0 mm
12:20 AM 83.3°F28.5°C 54.3°F12.4°C 37% 2.0 mph SSE3.2 kmh SSE 6.0 mph9.7 kmh 29.69 in1005.4 mb 0.00 in0.0 mm 0.00 in0.0 mm 0.00 in0.0 mm
12:25 AM 83.1°F28.4°C 54.1°F12.3°C 37% 2.0 mph SSE3.2 kmh SSE 5.0 mph8.0 kmh 29.69 in1005.4 mb 0.00 in0.0 mm 0.00 in0.0 mm 0.00 in0.0 mm
12:30 AM 83.0°F28.3°C 54.8°F12.7°C 38% 2.0 mph SSE3.2 kmh SSE 6.0 mph9.7 kmh 29.70 in1005.8 mb 0.00 in0.0 mm 0.00 in0.0 mm 0.00 in0.0 mm
12:35 AM 82.8°F28.2°C 54.6°F12.6°C 38% 3.0 mph S4.8 kmh S 6.0 mph9.7 kmh 29.69 in1005.4 mb 0.00 in0.0 mm 0.00 in0.0 mm 0.00 in0.0 mm
12:40 AM 82.7°F28.2°C 54.5°F12.5°C 38% 3.0 mph S4.8 kmh S 5.0 mph8.0 kmh 29.69 in1005.4 mb 0.00 in0.0 mm 0.00 in0.0 mm 0.00 in0.0 mm
12:45 AM 82.6°F28.1°C 55.1°F12.8°C 39% 2.0 mph S3.2 kmh S 4.0 mph6.4 kmh 29.69 in1005.4 mb 0.00 in0.0 mm 0.00 in0.0 mm 0.00 in0.0 mm
12:50 AM 82.4°F28.0°C 55.0°F12.8°C 39% 2.0 mph S3.2 kmh S 4.0 mph6.4 kmh 29.70 in1005.8 mb 0.00 in0.0 mm 0.00 in0.0 mm 0.00 in0.0 mm
12:55 AM 82.3°F27.9°C 55.6°F13.1°C 40% 2.0 mph S3.2 kmh S 4.0 mph6.4 kmh 29.70 in1005.8 mb 0.00 in0.0 mm 0.00 in0.0 mm 0.00 in0.0 mm
01:00 AM 82.2°F27.9°C 55.5°F13.1°C 40% 2.0 mph S3.2 kmh S 4.0 mph6.4 kmh 29.70 in1005.8 mb 0.00 in0.0 mm 0.00 in0.0 mm 0.00 in0.0 mm
01:05 AM 82.0°F27.8°C 56.0°F13.3°C 41% 1.0 mph S1.6 kmh S 3.0 mph4.8 kmh 29.70 in1005.8 mb 0.00 in0.0 mm 0.00 in0.0 mm 0.00 in0.0 mm
01:10 AM 81.9°F27.7°C 55.9°F13.3°C 41% 2.0 mph S3.2 kmh S 3.0 mph4.8 kmh 29.70 in1005.8 mb 0.00 in0.0 mm 0.00 in0.0 mm 0.00 in0.0 mm
01:15 AM 81.7°F27.6°C 56.4°F13.6°C 42% 2.0 mph S3.2 kmh S 5.0 mph8.0 kmh 29.70 in1005.8 mb 0.00 in0.0 mm 0.00 in0.0 mm 0.00 in0.0 mm
01:20 AM 81.7°F27.6°C 56.4°F13.6°C 42% 2.0 mph S3.2 kmh S 5.0 mph8.0 kmh 29.70 in1005.8 mb 0.00 in0.0 mm 0.00 in0.0 mm 0.00 in0.0 mm
01:25 AM 81.5°F27.5°C 56.2°F13.4°C 42% 1.0 mph S1.6 kmh S 3.0 mph4.8 kmh 29.70 in1005.8 mb 0.00 in0.0 mm 0.00 in0.0 mm 0.00 in0.0 mm
01:30 AM 81.4°F27.4°C 56.1°F13.4°C 42% 1.0 mph S1.6 kmh S 3.0 mph4.8 kmh 29.70 in1005.8 mb 0.00 in0.0 mm 0.00 in0.0 mm 0.00 in0.0 mm
01:35 AM 81.2°F27.3°C 55.9°F13.3°C 42% 1.0 mph S1.6 kmh S 3.0 mph4.8 kmh 29.70 in1005.8 mb 0.00 in0.0 mm 0.00 in0.0 mm 0.00 in0.0 mm
01:40 AM 81.0°F27.2°C 56.4°F13.6°C 43% Calm Calm 2.0 mph3.2 kmh 29.70 in1005.8 mb 0.00 in0.0 mm 0.00 in0.0 mm 0.00 in0.0 mm
01:45 AM 80.8°F27.1°C 56.2°F13.4°C 43% Calm Calm 1.0 mph1.6 kmh 29.70 in1005.8 mb 0.00 in0.0 mm 0.00 in0.0 mm 0.00 in0.0 mm
01:50 AM 80.6°F27.0°C 56.0°F13.3°C 43% Calm Calm 2.0 mph3.2 kmh 29.70 in1005.8 mb 0.00 in0.0 mm 0.00 in0.0 mm 0.00 in0.0 mm
01:55 AM 80.4°F26.9°C 56.5°F13.6°C 44% Calm Calm 2.0 mph3.2 kmh 29.70 in1005.8 mb 0.00 in0.0 mm 0.00 in0.0 mm 0.00 in0.0 mm
02:00 AM 80.3°F26.8°C 56.4°F13.6°C 44% Calm Calm 3.0 mph4.8 kmh 29.70 in1005.8 mb 0.00 in0.0 mm 0.00 in0.0 mm 0.00 in0.0 mm
02:05 AM 80.1°F26.7°C 56.2°F13.4°C 44% 1.0 mph S1.6 kmh S 3.0 mph4.8 kmh 29.70 in1005.8 mb 0.00 in0.0 mm 0.00 in0.0 mm 0.00 in0.0 mm
02:10 AM 80.0°F26.7°C 56.1°F13.4°C 44% 1.0 mph S1.6 kmh S 3.0 mph4.8 kmh 29.70 in1005.8 mb 0.00 in0.0 mm 0.00 in0.0 mm 0.00 in0.0 mm
02:15 AM 79.9°F26.6°C 56.0°F13.3°C 44% Calm Calm 2.0 mph3.2 kmh 29.70 in1005.8 mb 0.00 in0.0 mm 0.00 in0.0 mm 0.00 in0.0 mm
02:20 AM 79.7°F26.5°C 56.5°F13.6°C 45% 1.0 mph S1.6 kmh S 3.0 mph4.8 kmh 29.70 in1005.8 mb 0.00 in0.0 mm 0.00 in0.0 mm 0.00 in0.0 mm
02:25 AM 79.6°F26.4°C 56.4°F13.6°C 45% 1.0 mph S1.6 kmh S 3.0 mph4.8 kmh 29.70 in1005.8 mb 0.00 in0.0 mm 0.00 in0.0 mm 0.00 in0.0 mm
02:30 AM 79.4°F26.3°C 56.2°F13.4°C 45% 1.0 mph S1.6 kmh S 3.0 mph4.8 kmh 29.70 in1005.8 mb 0.00 in0.0 mm 0.00 in0.0 mm 0.00 in0.0 mm
02:35 AM 79.3°F26.3°C 56.7°F13.7°C 46% 1.0 mph S1.6 kmh S 4.0 mph6.4 kmh 29.70 in1005.8 mb 0.00 in0.0 mm 0.00 in0.0 mm 0.00 in0.0 mm
02:40 AM 79.3°F26.3°C 56.7°F13.7°C 46% 2.0 mph S3.2 kmh S 4.0 mph6.4 kmh 29.70 in1005.8 mb 0.00 in0.0 mm 0.00 in0.0 mm 0.00 in0.0 mm
02:45 AM 79.3°F26.3°C 56.7°F13.7°C 46% 2.0 mph S3.2 kmh S 4.0 mph6.4 kmh 29.70 in1005.8 mb 0.00 in0.0 mm 0.00 in0.0 mm 0.00 in0.0 mm
02:50 AM 79.3°F26.3°C 56.7°F13.7°C 46% 1.0 mph S1.6 kmh S 3.0 mph4.8 kmh 29.70 in1005.8 mb 0.00 in0.0 mm 0.00 in0.0 mm 0.00 in0.0 mm
02:55 AM 79.3°F26.3°C 56.7°F13.7°C 46% 1.0 mph S1.6 kmh S 3.0 mph4.8 kmh 29.70 in1005.8 mb 0.00 in0.0 mm 0.00 in0.0 mm 0.00 in0.0 mm
03:00 AM 79.3°F26.3°C 56.7°F13.7°C 46% 1.0 mph S1.6 kmh S 2.0 mph3.2 kmh 29.70 in1005.8 mb 0.00 in0.0 mm 0.00 in0.0 mm 0.00 in0.0 mm
03:05 AM 79.2°F26.2°C 56.6°F13.7°C 46% Calm Calm 2.0 mph3.2 kmh 29.70 in1005.8 mb 0.00 in0.0 mm 0.00 in0.0 mm 0.00 in0.0 mm
03:10 AM 79.1°F26.2°C 56.5°F13.6°C 46% Calm Calm 1.0 mph1.6 kmh 29.70 in1005.8 mb 0.00 in0.0 mm 0.00 in0.0 mm 0.00 in0.0 mm
03:15 AM 79.0°F26.1°C 56.5°F13.6°C 46% Calm Calm 2.0 mph3.2 kmh 29.70 in1005.8 mb 0.00 in0.0 mm 0.00 in0.0 mm 0.00 in0.0 mm
03:20 AM 78.8°F26.0°C 56.3°F13.5°C 46% 1.0 mph S1.6 kmh S 3.0 mph4.8 kmh 29.70 in1005.8 mb 0.00 in0.0 mm 0.00 in0.0 mm 0.00 in0.0 mm
03:25 AM 78.7°F25.9°C 56.8°F13.8°C 47% 2.0 mph SSE3.2 kmh SSE 5.0 mph8.0 kmh 29.70 in1005.8 mb 0.00 in0.0 mm 0.00 in0.0 mm 0.00 in0.0 mm
03:30 AM 78.6°F25.9°C 56.7°F13.7°C 47% 2.0 mph SE3.2 kmh SE 5.0 mph8.0 kmh 29.70 in1005.8 mb 0.00 in0.0 mm 0.00 in0.0 mm 0.00 in0.0 mm
03:35 AM 78.6°F25.9°C 56.7°F13.7°C 47% 2.0 mph SE3.2 kmh SE 4.0 mph6.4 kmh 29.70 in1005.8 mb 0.00 in0.0 mm 0.00 in0.0 mm 0.00 in0.0 mm
03:40 AM 78.6°F25.9°C 56.7°F13.7°C 47% 1.0 mph SE1.6 kmh SE 4.0 mph6.4 kmh 29.70 in1005.8 mb 0.00 in0.0 mm 0.00 in0.0 mm 0.00 in0.0 mm
03:45 AM 78.6°F25.9°C 56.7°F13.7°C 47% Calm Calm 2.0 mph3.2 kmh 29.70 in1005.8 mb 0.00 in0.0 mm 0.00 in0.0 mm 0.00 in0.0 mm
03:50 AM 78.5°F25.8°C 56.6°F13.7°C 47% Calm Calm -- 29.70 in1005.8 mb 0.00 in0.0 mm 0.00 in0.0 mm 0.00 in0.0 mm
03:55 AM 78.4°F25.8°C 57.1°F13.9°C 48% Calm Calm -- 29.70 in1005.8 mb 0.00 in0.0 mm 0.00 in0.0 mm 0.00 in0.0 mm
04:00 AM 78.2°F25.7°C 56.3°F13.5°C 47% Calm Calm -- 29.70 in1005.8 mb 0.00 in0.0 mm 0.00 in0.0 mm 0.00 in0.0 mm
04:05 AM 78.1°F25.6°C 56.2°F13.4°C 47% Calm Calm -- 29.70 in1005.8 mb 0.00 in0.0 mm 0.00 in0.0 mm 0.00 in0.0 mm
04:10 AM 77.9°F25.5°C 56.6°F13.7°C 48% Calm Calm -- 29.70 in1005.8 mb 0.00 in0.0 mm 0.00 in0.0 mm 0.00 in0.0 mm
04:15 AM 77.6°F25.3°C 55.8°F13.2°C 47% Calm Calm -- 29.70 in1005.8 mb 0.00 in0.0 mm 0.00 in0.0 mm 0.00 in0.0 mm
04:20 AM 77.4°F25.2°C 55.6°F13.1°C 47% Calm Calm 2.0 mph3.2 kmh 29.70 in1005.8 mb 0.00 in0.0 mm 0.00 in0.0 mm 0.00 in0.0 mm
04:25 AM 77.1°F25.1°C 55.3°F12.9°C 47% 1.0 mph SE1.6 kmh SE 2.0 mph3.2 kmh 29.70 in1005.8 mb 0.00 in0.0 mm 0.00 in0.0 mm 0.00 in0.0 mm
04:30 AM 76.9°F24.9°C 55.1°F12.8°C 47% 1.0 mph SE1.6 kmh SE 2.0 mph3.2 kmh 29.71 in1006.1 mb 0.00 in0.0 mm 0.00 in0.0 mm 0.00 in0.0 mm
04:35 AM 76.8°F24.9°C 55.0°F12.8°C 47% Calm Calm 2.0 mph3.2 kmh 29.71 in1006.1 mb 0.00 in0.0 mm 0.00 in0.0 mm 0.00 in0.0 mm
04:40 AM 76.6°F24.8°C 54.9°F12.7°C 47% Calm Calm 2.0 mph3.2 kmh 29.71 in1006.1 mb 0.00 in0.0 mm 0.00 in0.0 mm 0.00 in0.0 mm
04:45 AM 76.5°F24.7°C 55.3°F12.9°C 48% Calm Calm 2.0 mph3.2 kmh 29.71 in1006.1 mb 0.00 in0.0 mm 0.00 in0.0 mm 0.00 in0.0 mm
04:50 AM 76.3°F24.6°C 55.2°F12.9°C 48% Calm Calm 2.0 mph3.2 kmh 29.71 in1006.1 mb 0.00 in0.0 mm 0.00 in0.0 mm 0.00 in0.0 mm
04:55 AM 76.2°F24.6°C 55.1°F12.8°C 48% Calm Calm 2.0 mph3.2 kmh 29.71 in1006.1 mb 0.00 in0.0 mm 0.00 in0.0 mm 0.00 in0.0 mm
05:00 AM 76.0°F24.4°C 55.5°F13.1°C 49% 1.0 mph SE1.6 kmh SE 2.0 mph3.2 kmh 29.71 in1006.1 mb 0.00 in0.0 mm 0.00 in0.0 mm 0.00 in0.0 mm
05:05 AM 76.0°F24.4°C 55.5°F13.1°C 49% 2.0 mph SE3.2 kmh SE 3.0 mph4.8 kmh 29.71 in1006.1 mb 0.00 in0.0 mm 0.00 in0.0 mm 0.00 in0.0 mm
05:10 AM 76.0°F24.4°C 55.5°F13.1°C 49% 2.0 mph SE3.2 kmh SE 3.0 mph4.8 kmh 29.71 in1006.1 mb 0.00 in0.0 mm 0.00 in0.0 mm 0.00 in0.0 mm
05:15 AM 76.0°F24.4°C 55.5°F13.1°C 49% 1.0 mph SE1.6 kmh SE 3.0 mph4.8 kmh 29.72 in1006.4 mb 0.00 in0.0 mm 0.00 in0.0 mm 0.00 in0.0 mm
05:20 AM 76.0°F24.4°C 55.5°F13.1°C 49% 1.0 mph SE1.6 kmh SE 3.0 mph4.8 kmh 29.72 in1006.4 mb 0.00 in0.0 mm 0.00 in0.0 mm 0.00 in0.0 mm
05:25 AM 76.0°F24.4°C 56.0°F13.3°C 50% 1.0 mph SE1.6 kmh SE 3.0 mph4.8 kmh 29.72 in1006.4 mb 0.00 in0.0 mm 0.00 in0.0 mm 0.00 in0.0 mm
05:30 AM 76.0°F24.4°C 56.0°F13.3°C 50% 2.0 mph SE3.2 kmh SE 5.0 mph8.0 kmh 29.72 in1006.4 mb 0.00 in0.0 mm 0.00 in0.0 mm 0.00 in0.0 mm
05:35 AM 76.0°F24.4°C 56.0°F13.3°C 50% 2.0 mph SE3.2 kmh SE 5.0 mph8.0 kmh 29.72 in1006.4 mb 0.00 in0.0 mm 0.00 in0.0 mm 0.00 in0.0 mm
05:40 AM 76.0°F24.4°C 56.0°F13.3°C 50% 1.0 mph SE1.6 kmh SE 3.0 mph4.8 kmh 29.72 in1006.4 mb 0.00 in0.0 mm 0.00 in0.0 mm 0.00 in0.0 mm
05:45 AM 76.0°F24.4°C 56.0°F13.3°C 50% 1.0 mph SE1.6 kmh SE 3.0 mph4.8 kmh 29.72 in1006.4 mb 0.00 in0.0 mm 0.00 in0.0 mm 0.00 in0.0 mm
05:50 AM 76.0°F24.4°C 56.0°F13.3°C 50% 1.0 mph SE1.6 kmh SE 4.0 mph6.4 kmh 29.72 in1006.4 mb 0.00 in0.0 mm 0.00 in0.0 mm 0.00 in0.0 mm
05:55 AM 76.0°F24.4°C 56.0°F13.3°C 50% 1.0 mph SE1.6 kmh SE 4.0 mph6.4 kmh 29.72 in1006.4 mb 0.00 in0.0 mm 0.00 in0.0 mm 0.00 in0.0 mm
06:00 AM 75.9°F24.4°C 55.9°F13.3°C 50% Calm Calm 3.0 mph4.8 kmh 29.72 in1006.4 mb 0.00 in0.0 mm 0.00 in0.0 mm 0.00 in0.0 mm
06:05 AM 75.8°F24.3°C 56.4°F13.6°C 51% Calm Calm 1.0 mph1.6 kmh 29.72 in1006.4 mb 0.00 in0.0 mm 0.00 in0.0 mm 0.00 in0.0 mm
06:10 AM 75.7°F24.3°C 56.3°F13.5°C 51% Calm Calm 1.0 mph1.6 kmh 29.72 in1006.4 mb 0.00 in0.0 mm 0.00 in0.0 mm 0.00 in0.0 mm
06:15 AM 75.6°F24.2°C 56.2°F13.4°C 51% Calm Calm 1.0 mph1.6 kmh 29.73 in1006.8 mb 0.00 in0.0 mm 0.00 in0.0 mm 0.00 in0.0 mm
06:20 AM 75.4°F24.1°C 56.0°F13.3°C 51% Calm Calm 1.0 mph1.6 kmh 29.73 in1006.8 mb 0.00 in0.0 mm 0.00 in0.0 mm 0.00 in0.0 mm
06:25 AM 75.3°F24.1°C 56.5°F13.6°C 52% Calm Calm 1.0 mph1.6 kmh 29.73 in1006.8 mb 0.00 in0.0 mm 0.00 in0.0 mm 0.00 in0.0 mm
06:30 AM 75.2°F24.0°C 56.9°F13.8°C 53% 1.0 mph SSE1.6 kmh SSE 4.0 mph6.4 kmh 29.73 in1006.8 mb 0.00 in0.0 mm 0.00 in0.0 mm 0.00 in0.0 mm
06:35 AM 75.2°F24.0°C 56.9°F13.8°C 53% 1.0 mph SSE1.6 kmh SSE 4.0 mph6.4 kmh 29.73 in1006.8 mb 0.00 in0.0 mm 0.00 in0.0 mm 0.00 in0.0 mm
06:40 AM 75.3°F24.1°C 57.0°F13.9°C 53% 1.0 mph S1.6 kmh S 4.0 mph6.4 kmh 29.73 in1006.8 mb 0.00 in0.0 mm 0.00 in0.0 mm 0.00 in0.0 mm
06:45 AM 75.5°F24.2°C 57.2°F14.0°C 53% 2.0 mph S3.2 kmh S 4.0 mph6.4 kmh 29.73 in1006.8 mb 0.00 in0.0 mm 0.00 in0.0 mm 0.00 in0.0 mm
06:50 AM 75.8°F24.3°C 57.4°F14.1°C 53% 2.0 mph S3.2 kmh S 4.0 mph6.4 kmh 29.74 in1007.1 mb 0.00 in0.0 mm 0.00 in0.0 mm 0.00 in0.0 mm
06:55 AM 76.3°F24.6°C 57.9°F14.4°C 53% 3.0 mph SSE4.8 kmh SSE 7.0 mph11.3 kmh 29.74 in1007.1 mb 0.00 in0.0 mm 0.00 in0.0 mm 0.00 in0.0 mm
07:00 AM 76.7°F24.8°C 58.3°F14.6°C 53% 3.0 mph SSE4.8 kmh SSE 7.0 mph11.3 kmh 29.74 in1007.1 mb 0.00 in0.0 mm 0.00 in0.0 mm 0.00 in0.0 mm
07:05 AM 77.0°F25.0°C 58.6°F14.8°C 53% 3.0 mph S4.8 kmh S 8.0 mph12.9 kmh 29.74 in1007.1 mb 0.00 in0.0 mm 0.00 in0.0 mm 0.00 in0.0 mm
07:10 AM 77.4°F25.2°C 58.4°F14.7°C 52% 2.0 mph S3.2 kmh S 8.0 mph12.9 kmh 29.74 in1007.1 mb 0.00 in0.0 mm 0.00 in0.0 mm 0.00 in0.0 mm
07:15 AM 77.8°F25.4°C 58.8°F14.9°C 52% 1.0 mph S1.6 kmh S 3.0 mph4.8 kmh 29.74 in1007.1 mb 0.00 in0.0 mm 0.00 in0.0 mm 0.00 in0.0 mm
07:20 AM 78.2°F25.7°C 59.1°F15.1°C 52% 1.0 mph S1.6 kmh S 3.0 mph4.8 kmh 29.74 in1007.1 mb 0.00 in0.0 mm 0.00 in0.0 mm 0.00 in0.0 mm
07:25 AM 78.7°F25.9°C 59.0°F15.0°C 51% 2.0 mph S3.2 kmh S 4.0 mph6.4 kmh 29.74 in1007.1 mb 0.00 in0.0 mm 0.00 in0.0 mm 0.00 in0.0 mm
07:30 AM 79.2°F26.2°C 59.5°F15.3°C 51% 2.0 mph S3.2 kmh S 4.0 mph6.4 kmh 29.74 in1007.1 mb 0.00 in0.0 mm 0.00 in0.0 mm 0.00 in0.0 mm
07:35 AM 79.6°F26.4°C 59.3°F15.2°C 50% 2.0 mph S3.2 kmh S 4.0 mph6.4 kmh 29.74 in1007.1 mb 0.00 in0.0 mm 0.00 in0.0 mm 0.00 in0.0 mm
07:40 AM 80.1°F26.7°C 59.2°F15.1°C 49% 2.0 mph S3.2 kmh S 4.0 mph6.4 kmh 29.74 in1007.1 mb 0.00 in0.0 mm 0.00 in0.0 mm 0.00 in0.0 mm
07:45 AM 80.6°F27.0°C 59.7°F15.4°C 49% 1.0 mph S1.6 kmh S 4.0 mph6.4 kmh 29.74 in1007.1 mb 0.00 in0.0 mm 0.00 in0.0 mm 0.00 in0.0 mm
07:50 AM 81.2°F27.3°C 59.6°F15.3°C 48% 2.0 mph S3.2 kmh S 4.0 mph6.4 kmh 29.74 in1007.1 mb 0.00 in0.0 mm 0.00 in0.0 mm 0.00 in0.0 mm
07:55 AM 81.7°F27.6°C 60.1°F15.6°C 48% 2.0 mph S3.2 kmh S 4.0 mph6.4 kmh 29.74 in1007.1 mb 0.00 in0.0 mm 0.00 in0.0 mm 0.00 in0.0 mm
08:00 AM 82.1°F27.8°C 59.9°F15.5°C 47% 2.0 mph S3.2 kmh S 5.0 mph8.0 kmh 29.74 in1007.1 mb 0.00 in0.0 mm 0.00 in0.0 mm 0.00 in0.0 mm
08:05 AM 82.6°F28.1°C 60.3°F15.7°C 47% 2.0 mph SSE3.2 kmh SSE 5.0 mph8.0 kmh 29.74 in1007.1 mb 0.00 in0.0 mm 0.00 in0.0 mm 0.00 in0.0 mm
08:10 AM 83.0°F28.3°C 60.1°F15.6°C 46% 2.0 mph S3.2 kmh S 5.0 mph8.0 kmh 29.74 in1007.1 mb 0.00 in0.0 mm 0.00 in0.0 mm 0.00 in0.0 mm
08:15 AM 83.5°F28.6°C 59.9°F15.5°C 45% 1.0 mph S1.6 kmh S 4.0 mph6.4 kmh 29.74 in1007.1 mb 0.00 in0.0 mm 0.00 in0.0 mm 0.00 in0.0 mm
08:20 AM 83.9°F28.8°C 60.3°F15.7°C 45% 1.0 mph S1.6 kmh S 3.0 mph4.8 kmh 29.73 in1006.8 mb 0.00 in0.0 mm 0.00 in0.0 mm 0.00 in0.0 mm
08:25 AM 84.2°F29.0°C 59.9°F15.5°C 44% 1.0 mph S1.6 kmh S 4.0 mph6.4 kmh 29.74 in1007.1 mb 0.00 in0.0 mm 0.00 in0.0 mm 0.00 in0.0 mm
08:30 AM 84.5°F29.2°C 60.2°F15.7°C 44% 2.0 mph S3.2 kmh S 4.0 mph6.4 kmh 29.74 in1007.1 mb 0.00 in0.0 mm 0.00 in0.0 mm 0.00 in0.0 mm
08:35 AM 84.8°F29.3°C 59.8°F15.4°C 43% 2.0 mph S3.2 kmh S 5.0 mph8.0 kmh 29.73 in1006.8 mb 0.00 in0.0 mm 0.00 in0.0 mm 0.00 in0.0 mm
08:40 AM 85.4°F29.7°C 60.4°F15.8°C 43% 2.0 mph S3.2 kmh S 5.0 mph8.0 kmh 29.73 in1006.8 mb 0.00 in0.0 mm 0.00 in0.0 mm 0.00 in0.0 mm
08:45 AM 85.8°F29.9°C 60.1°F15.6°C 42% 2.0 mph S3.2 kmh S 5.0 mph8.0 kmh 29.73 in1006.8 mb 0.00 in0.0 mm 0.00 in0.0 mm 0.00 in0.0 mm
08:50 AM 86.2°F30.1°C 60.4°F15.8°C 42% 2.0 mph S3.2 kmh S 5.0 mph8.0 kmh 29.74 in1007.1 mb 0.00 in0.0 mm 0.00 in0.0 mm 0.00 in0.0 mm
08:55 AM 86.7°F30.4°C 60.2°F15.7°C 41% 1.0 mph SSW1.6 kmh SSW 4.0 mph6.4 kmh 29.74 in1007.1 mb 0.00 in0.0 mm 0.00 in0.0 mm 0.00 in0.0 mm
09:00 AM 86.6°F30.3°C 60.1°F15.6°C 41% 2.0 mph SW3.2 kmh SW 4.0 mph6.4 kmh 29.74 in1007.1 mb 0.00 in0.0 mm 0.00 in0.0 mm 0.00 in0.0 mm
09:05 AM 87.2°F30.7°C 59.9°F15.5°C 40% 1.0 mph SSW1.6 kmh SSW 4.0 mph6.4 kmh 29.74 in1007.1 mb 0.00 in0.0 mm 0.00 in0.0 mm 0.00 in0.0 mm
09:10 AM 87.7°F30.9°C 59.7°F15.4°C 39% 1.0 mph SW1.6 kmh SW 4.0 mph6.4 kmh 29.74 in1007.1 mb 0.00 in0.0 mm 0.00 in0.0 mm 0.00 in0.0 mm
09:15 AM 87.9°F31.1°C 59.1°F15.1°C 38% 2.0 mph WSW3.2 kmh WSW 4.0 mph6.4 kmh 29.74 in1007.1 mb 0.00 in0.0 mm 0.00 in0.0 mm 0.00 in0.0 mm
09:20 AM 87.8°F31.0°C 59.0°F15.0°C 38% 2.0 mph W3.2 kmh W 4.0 mph6.4 kmh 29.74 in1007.1 mb 0.00 in0.0 mm 0.00 in0.0 mm 0.00 in0.0 mm
09:25 AM 88.2°F31.2°C 58.6°F14.8°C 37% 2.0 mph W3.2 kmh W 4.0 mph6.4 kmh 29.74 in1007.1 mb 0.00 in0.0 mm 0.00 in0.0 mm 0.00 in0.0 mm
09:30 AM 88.6°F31.4°C 57.4°F14.1°C 35% 2.0 mph W3.2 kmh W 6.0 mph9.7 kmh 29.74 in1007.1 mb 0.00 in0.0 mm 0.00 in0.0 mm 0.00 in0.0 mm
09:35 AM 88.8°F31.6°C 57.6°F14.2°C 35% 3.0 mph W4.8 kmh W 6.0 mph9.7 kmh 29.74 in1007.1 mb 0.00 in0.0 mm 0.00 in0.0 mm 0.00 in0.0 mm
09:40 AM 88.9°F31.6°C 57.7°F14.3°C 35% 3.0 mph NW4.8 kmh NW 7.0 mph11.3 kmh 29.74 in1007.1 mb 0.00 in0.0 mm 0.00 in0.0 mm 0.00 in0.0 mm
09:45 AM 89.1°F31.7°C 57.9°F14.4°C 35% 3.0 mph WNW4.8 kmh WNW 7.0 mph11.3 kmh 29.74 in1007.1 mb 0.00 in0.0 mm 0.00 in0.0 mm 0.00 in0.0 mm
09:50 AM 88.7°F31.5°C 57.5°F14.2°C 35% 3.0 mph W4.8 kmh W 7.0 mph11.3 kmh 29.73 in1006.8 mb 0.00 in0.0 mm 0.00 in0.0 mm 0.00 in0.0 mm
09:55 AM 88.8°F31.6°C 58.4°F14.7°C 36% 3.0 mph W4.8 kmh W 7.0 mph11.3 kmh 29.73 in1006.8 mb 0.00 in0.0 mm 0.00 in0.0 mm 0.00 in0.0 mm
10:00 AM 89.1°F31.7°C 57.9°F14.4°C 35% 3.0 mph NW4.8 kmh NW 8.0 mph12.9 kmh 29.73 in1006.8 mb 0.00 in0.0 mm 0.00 in0.0 mm 0.00 in0.0 mm
10:05 AM 89.3°F31.8°C 58.1°F14.5°C 35% 3.0 mph NW4.8 kmh NW 8.0 mph12.9 kmh 29.73 in1006.8 mb 0.00 in0.0 mm 0.00 in0.0 mm 0.00 in0.0 mm
10:10 AM 89.6°F32.0°C 58.3°F14.6°C 35% 3.0 mph NW4.8 kmh NW 8.0 mph12.9 kmh 29.73 in1006.8 mb 0.00 in0.0 mm 0.00 in0.0 mm 0.00 in0.0 mm
10:15 AM 89.7°F32.1°C 58.4°F14.7°C 35% 4.0 mph NW6.4 kmh NW 8.0 mph12.9 kmh 29.73 in1006.8 mb 0.00 in0.0 mm 0.00 in0.0 mm 0.00 in0.0 mm
10:20 AM 89.7°F32.1°C 58.4°F14.7°C 35% 4.0 mph NW6.4 kmh NW 8.0 mph12.9 kmh 29.73 in1006.8 mb 0.00 in0.0 mm 0.00 in0.0 mm 0.00 in0.0 mm
10:25 AM 89.8°F32.1°C 57.7°F14.3°C 34% 3.0 mph NW4.8 kmh NW 8.0 mph12.9 kmh 29.73 in1006.8 mb 0.00 in0.0 mm 0.00 in0.0 mm 0.00 in0.0 mm
10:30 AM 90.4°F32.4°C 58.2°F14.6°C 34% 3.0 mph NW4.8 kmh NW 8.0 mph12.9 kmh 29.73 in1006.8 mb 0.00 in0.0 mm 0.00 in0.0 mm 0.00 in0.0 mm
10:35 AM 90.8°F32.7°C 57.7°F14.3°C 33% 3.0 mph W4.8 kmh W 8.0 mph12.9 kmh 29.73 in1006.8 mb 0.00 in0.0 mm 0.00 in0.0 mm 0.00 in0.0 mm
10:40 AM 90.7°F32.6°C 56.8°F13.8°C 32% 4.0 mph WSW6.4 kmh WSW 8.0 mph12.9 kmh 29.72 in1006.4 mb 0.00 in0.0 mm 0.00 in0.0 mm 0.00 in0.0 mm
10:45 AM 90.8°F32.7°C 56.9°F13.8°C 32% 4.0 mph WSW6.4 kmh WSW 8.0 mph12.9 kmh 29.72 in1006.4 mb 0.00 in0.0 mm 0.00 in0.0 mm 0.00 in0.0 mm
10:50 AM 90.7°F32.6°C 56.8°F13.8°C 32% 4.0 mph WSW6.4 kmh WSW 9.0 mph14.5 kmh 29.72 in1006.4 mb 0.00 in0.0 mm 0.00 in0.0 mm 0.00 in0.0 mm
10:55 AM 91.0°F32.8°C 56.2°F13.4°C 31% 4.0 mph WSW6.4 kmh WSW 9.0 mph14.5 kmh 29.72 in1006.4 mb 0.00 in0.0 mm 0.00 in0.0 mm 0.00 in0.0 mm
11:00 AM 91.2°F32.9°C 56.3°F13.5°C 31% 3.0 mph WSW4.8 kmh WSW 8.0 mph12.9 kmh 29.71 in1006.1 mb 0.00 in0.0 mm 0.00 in0.0 mm 0.00 in0.0 mm
11:05 AM 91.8°F33.2°C 56.9°F13.8°C 31% 3.0 mph WNW4.8 kmh WNW 9.0 mph14.5 kmh 29.71 in1006.1 mb 0.00 in0.0 mm 0.00 in0.0 mm 0.00 in0.0 mm
11:10 AM 92.3°F33.5°C 56.4°F13.6°C 30% 3.0 mph WNW4.8 kmh WNW 9.0 mph14.5 kmh 29.71 in1006.1 mb 0.00 in0.0 mm 0.00 in0.0 mm 0.00 in0.0 mm
11:15 AM 92.8°F33.8°C 56.8°F13.8°C 30% 3.0 mph WNW4.8 kmh WNW 9.0 mph14.5 kmh 29.71 in1006.1 mb 0.00 in0.0 mm 0.00 in0.0 mm 0.00 in0.0 mm
11:20 AM 93.2°F34.0°C 56.2°F13.4°C 29% 3.0 mph WNW4.8 kmh WNW 9.0 mph14.5 kmh 29.71 in1006.1 mb 0.00 in0.0 mm 0.00 in0.0 mm 0.00 in0.0 mm
11:25 AM 93.6°F34.2°C 56.6°F13.7°C 29% 3.0 mph W4.8 kmh W 10.0 mph16.1 kmh 29.71 in1006.1 mb 0.00 in0.0 mm 0.00 in0.0 mm 0.00 in0.0 mm
11:30 AM 93.5°F34.2°C 56.5°F13.6°C 29% 3.0 mph W4.8 kmh W 10.0 mph16.1 kmh 29.70 in1005.8 mb 0.00 in0.0 mm 0.00 in0.0 mm 0.00 in0.0 mm
11:35 AM 93.6°F34.2°C 55.6°F13.1°C 28% 3.0 mph W4.8 kmh W 7.0 mph11.3 kmh 29.70 in1005.8 mb 0.00 in0.0 mm 0.00 in0.0 mm 0.00 in0.0 mm
11:40 AM 94.0°F34.4°C 55.9°F13.3°C 28% 3.0 mph W4.8 kmh W 6.0 mph9.7 kmh 29.70 in1005.8 mb 0.00 in0.0 mm 0.00 in0.0 mm 0.00 in0.0 mm
11:45 AM 94.1°F34.5°C 55.0°F12.8°C 27% 3.0 mph WNW4.8 kmh WNW 10.0 mph16.1 kmh 29.70 in1005.8 mb 0.00 in0.0 mm 0.00 in0.0 mm 0.00 in0.0 mm
11:50 AM 94.0°F34.4°C 55.9°F13.3°C 28% 3.0 mph NW4.8 kmh NW 10.0 mph16.1 kmh 29.70 in1005.8 mb 0.00 in0.0 mm 0.00 in0.0 mm 0.00 in0.0 mm
11:55 AM 94.1°F34.5°C 55.0°F12.8°C 27% 4.0 mph WNW6.4 kmh WNW 8.0 mph12.9 kmh 29.69 in1005.4 mb 0.00 in0.0 mm 0.00 in0.0 mm 0.00 in0.0 mm
12:00 PM 94.6°F34.8°C 55.4°F13.0°C 27% 3.0 mph WSW4.8 kmh WSW 7.0 mph11.3 kmh 29.69 in1005.4 mb 0.00 in0.0 mm 0.00 in0.0 mm 0.00 in0.0 mm
12:05 PM 95.3°F35.2°C 56.0°F13.3°C 27% 3.0 mph WSW4.8 kmh WSW 9.0 mph14.5 kmh 29.69 in1005.4 mb 0.00 in0.0 mm 0.00 in0.0 mm 0.00 in0.0 mm
12:10 PM 95.6°F35.3°C 55.2°F12.9°C 26% 3.0 mph WNW4.8 kmh WNW 9.0 mph14.5 kmh 29.69 in1005.4 mb 0.00 in0.0 mm 0.00 in0.0 mm 0.00 in0.0 mm
12:15 PM 95.9°F35.5°C 54.4°F12.4°C 25% 4.0 mph WNW6.4 kmh WNW 9.0 mph14.5 kmh 29.68 in1005.1 mb 0.00 in0.0 mm 0.00 in0.0 mm 0.00 in0.0 mm
12:20 PM 95.6°F35.3°C 54.2°F12.3°C 25% 4.0 mph WSW6.4 kmh WSW 9.0 mph14.5 kmh 29.68 in1005.1 mb 0.00 in0.0 mm 0.00 in0.0 mm 0.00 in0.0 mm
12:25 PM 96.1°F35.6°C 54.6°F12.6°C 25% 4.0 mph W6.4 kmh W 9.0 mph14.5 kmh 29.68 in1005.1 mb 0.00 in0.0 mm 0.00 in0.0 mm 0.00 in0.0 mm
12:30 PM 95.9°F35.5°C 54.4°F12.4°C 25% 4.0 mph W6.4 kmh W 9.0 mph14.5 kmh 29.68 in1005.1 mb 0.00 in0.0 mm 0.00 in0.0 mm 0.00 in0.0 mm
12:35 PM 96.2°F35.7°C 53.6°F12.0°C 24% 4.0 mph WSW6.4 kmh WSW 10.0 mph16.1 kmh 29.68 in1005.1 mb 0.00 in0.0 mm 0.00 in0.0 mm 0.00 in0.0 mm
12:40 PM 96.1°F35.6°C 53.5°F11.9°C 24% 4.0 mph W6.4 kmh W 10.0 mph16.1 kmh 29.68 in1005.1 mb 0.00 in0.0 mm 0.00 in0.0 mm 0.00 in0.0 mm
12:45 PM 96.2°F35.7°C 53.6°F12.0°C 24% 3.0 mph WNW4.8 kmh WNW 9.0 mph14.5 kmh 29.67 in1004.7 mb 0.00 in0.0 mm 0.00 in0.0 mm 0.00 in0.0 mm
12:50 PM 96.6°F35.9°C 55.0°F12.8°C 25% 3.0 mph WNW4.8 kmh WNW 9.0 mph14.5 kmh 29.67 in1004.7 mb 0.00 in0.0 mm 0.00 in0.0 mm 0.00 in0.0 mm
12:55 PM 96.7°F35.9°C 55.1°F12.8°C 25% 5.0 mph WNW8.0 kmh WNW 10.0 mph16.1 kmh 29.67 in1004.7 mb 0.00 in0.0 mm 0.00 in0.0 mm 0.00 in0.0 mm
01:00 PM 96.5°F35.8°C 54.9°F12.7°C 25% 5.0 mph WNW8.0 kmh WNW 10.0 mph16.1 kmh 29.66 in1004.4 mb 0.00 in0.0 mm 0.00 in0.0 mm 0.00 in0.0 mm
01:05 PM 97.0°F36.1°C 55.3°F12.9°C 25% 4.0 mph WNW6.4 kmh WNW 10.0 mph16.1 kmh 29.66 in1004.4 mb 0.00 in0.0 mm 0.00 in0.0 mm 0.00 in0.0 mm
01:10 PM 96.8°F36.0°C 55.2°F12.9°C 25% 4.0 mph NW6.4 kmh NW 11.0 mph17.7 kmh 29.66 in1004.4 mb 0.00 in0.0 mm 0.00 in0.0 mm 0.00 in0.0 mm
01:15 PM 96.8°F36.0°C 55.2°F12.9°C 25% 6.0 mph NW9.7 kmh NW 12.0 mph19.3 kmh 29.66 in1004.4 mb 0.00 in0.0 mm 0.00 in0.0 mm 0.00 in0.0 mm
01:20 PM 96.9°F36.1°C 55.3°F12.9°C 25% 5.0 mph WNW8.0 kmh WNW 12.0 mph19.3 kmh 29.66 in1004.4 mb 0.00 in0.0 mm 0.00 in0.0 mm 0.00 in0.0 mm
01:25 PM 97.4°F36.3°C 54.6°F12.6°C 24% 4.0 mph WNW6.4 kmh WNW 10.0 mph16.1 kmh 29.65 in1004.1 mb 0.00 in0.0 mm 0.00 in0.0 mm 0.00 in0.0 mm
01:30 PM 97.4°F36.3°C 54.6°F12.6°C 24% 4.0 mph W6.4 kmh W 11.0 mph17.7 kmh 29.65 in1004.1 mb 0.00 in0.0 mm 0.00 in0.0 mm 0.00 in0.0 mm
01:35 PM 97.5°F36.4°C 54.6°F12.6°C 24% 5.0 mph W8.0 kmh W 11.0 mph17.7 kmh 29.65 in1004.1 mb 0.00 in0.0 mm 0.00 in0.0 mm 0.00 in0.0 mm
01:40 PM 97.5°F36.4°C 54.6°F12.6°C 24% 5.0 mph WNW8.0 kmh WNW 11.0 mph17.7 kmh 29.65 in1004.1 mb 0.00 in0.0 mm 0.00 in0.0 mm 0.00 in0.0 mm
01:45 PM 97.7°F36.5°C 54.8°F12.7°C 24% 5.0 mph NW8.0 kmh NW 12.0 mph19.3 kmh 29.64 in1003.7 mb 0.00 in0.0 mm 0.00 in0.0 mm 0.00 in0.0 mm
01:50 PM 97.6°F36.4°C 54.7°F12.6°C 24% 6.0 mph NW9.7 kmh NW 13.0 mph20.9 kmh 29.64 in1003.7 mb 0.00 in0.0 mm 0.00 in0.0 mm 0.00 in0.0 mm
01:55 PM 97.6°F36.4°C 53.6°F12.0°C 23% 7.0 mph NW11.3 kmh NW 15.0 mph24.1 kmh 29.64 in1003.7 mb 0.00 in0.0 mm 0.00 in0.0 mm 0.00 in0.0 mm
02:00 PM 97.4°F36.3°C 53.4°F11.9°C 23% 7.0 mph WNW11.3 kmh WNW 15.0 mph24.1 kmh 29.64 in1003.7 mb 0.00 in0.0 mm 0.00 in0.0 mm 0.00 in0.0 mm
02:05 PM 97.3°F36.3°C 53.3°F11.8°C 23% 6.0 mph W9.7 kmh W 13.0 mph20.9 kmh 29.63 in1003.4 mb 0.00 in0.0 mm 0.00 in0.0 mm 0.00 in0.0 mm
02:10 PM 97.4°F36.3°C 53.4°F11.9°C 23% 5.0 mph W8.0 kmh W 12.0 mph19.3 kmh 29.63 in1003.4 mb 0.00 in0.0 mm 0.00 in0.0 mm 0.00 in0.0 mm
02:15 PM 97.5°F36.4°C 52.3°F11.3°C 22% 6.0 mph WNW9.7 kmh WNW 16.0 mph25.7 kmh 29.63 in1003.4 mb 0.00 in0.0 mm 0.00 in0.0 mm 0.00 in0.0 mm
02:20 PM 97.4°F36.3°C 52.2°F11.2°C 22% 7.0 mph WNW11.3 kmh WNW 16.0 mph25.7 kmh 29.63 in1003.4 mb 0.00 in0.0 mm 0.00 in0.0 mm 0.00 in0.0 mm
02:25 PM 97.2°F36.2°C 53.2°F11.8°C 23% 7.0 mph W11.3 kmh W 12.0 mph19.3 kmh 29.62 in1003.0 mb 0.00 in0.0 mm 0.00 in0.0 mm 0.00 in0.0 mm
02:30 PM 97.5°F36.4°C 52.3°F11.3°C 22% 7.0 mph W11.3 kmh W 12.0 mph19.3 kmh 29.62 in1003.0 mb 0.00 in0.0 mm 0.00 in0.0 mm 0.00 in0.0 mm
02:35 PM 97.8°F36.6°C 52.5°F11.4°C 22% 6.0 mph W9.7 kmh W 12.0 mph19.3 kmh 29.62 in1003.0 mb 0.00 in0.0 mm 0.00 in0.0 mm 0.00 in0.0 mm
02:40 PM 98.0°F36.7°C 52.7°F11.5°C 22% 6.0 mph W9.7 kmh W 12.0 mph19.3 kmh 29.62 in1003.0 mb 0.00 in0.0 mm 0.00 in0.0 mm 0.00 in0.0 mm
02:45 PM 98.1°F36.7°C 52.8°F11.6°C 22% 6.0 mph WNW9.7 kmh WNW 12.0 mph19.3 kmh 29.61 in1002.7 mb 0.00 in0.0 mm 0.00 in0.0 mm 0.00 in0.0 mm
02:50 PM 98.2°F36.8°C 52.8°F11.6°C 22% 6.0 mph WNW9.7 kmh WNW 12.0 mph19.3 kmh 29.61 in1002.7 mb 0.00 in0.0 mm 0.00 in0.0 mm 0.00 in0.0 mm
02:55 PM 98.5°F36.9°C 53.1°F11.7°C 22% 5.0 mph WNW8.0 kmh WNW 10.0 mph16.1 kmh 29.61 in1002.7 mb 0.00 in0.0 mm 0.00 in0.0 mm 0.00 in0.0 mm
03:00 PM 98.6°F37.0°C 51.9°F11.1°C 21% 6.0 mph W9.7 kmh W 14.0 mph22.5 kmh 29.61 in1002.7 mb 0.00 in0.0 mm 0.00 in0.0 mm 0.00 in0.0 mm
03:05 PM 98.5°F36.9°C 51.8°F11.0°C 21% 6.0 mph WNW9.7 kmh WNW 14.0 mph22.5 kmh 29.61 in1002.7 mb 0.00 in0.0 mm 0.00 in0.0 mm 0.00 in0.0 mm
03:10 PM 98.3°F36.8°C 51.7°F10.9°C 21% 6.0 mph WNW9.7 kmh WNW 11.0 mph17.7 kmh 29.61 in1002.7 mb 0.00 in0.0 mm 0.00 in0.0 mm 0.00 in0.0 mm
03:15 PM 98.2°F36.8°C 51.6°F10.9°C 21% 6.0 mph WNW9.7 kmh WNW 13.0 mph20.9 kmh 29.60 in1002.4 mb 0.00 in0.0 mm 0.00 in0.0 mm 0.00 in0.0 mm
03:20 PM 97.9°F36.6°C 51.3°F10.7°C 21% 8.0 mph WNW12.9 kmh WNW 17.0 mph27.4 kmh 29.60 in1002.4 mb 0.00 in0.0 mm 0.00 in0.0 mm 0.00 in0.0 mm
03:25 PM 97.9°F36.6°C 51.3°F10.7°C 21% 8.0 mph WNW12.9 kmh WNW 17.0 mph27.4 kmh 29.60 in1002.4 mb 0.00 in0.0 mm 0.00 in0.0 mm 0.00 in0.0 mm
03:30 PM 97.8°F36.6°C 51.3°F10.7°C 21% 7.0 mph W11.3 kmh W 16.0 mph25.7 kmh 29.60 in1002.4 mb 0.00 in0.0 mm 0.00 in0.0 mm 0.00 in0.0 mm
03:35 PM 97.7°F36.5°C 51.2°F10.7°C 21% 7.0 mph W11.3 kmh W 16.0 mph25.7 kmh 29.60 in1002.4 mb 0.00 in0.0 mm 0.00 in0.0 mm 0.00 in0.0 mm
03:40 PM 97.6°F36.4°C 51.1°F10.6°C 21% 8.0 mph WNW12.9 kmh WNW 14.0 mph22.5 kmh 29.59 in1002.0 mb 0.00 in0.0 mm 0.00 in0.0 mm 0.00 in0.0 mm
03:45 PM 97.4°F36.3°C 50.9°F10.5°C 21% 8.0 mph NW12.9 kmh NW 16.0 mph25.7 kmh 29.59 in1002.0 mb 0.00 in0.0 mm 0.00 in0.0 mm 0.00 in0.0 mm
03:50 PM 97.2°F36.2°C 52.0°F11.1°C 22% 8.0 mph WNW12.9 kmh WNW 17.0 mph27.4 kmh 29.58 in1001.7 mb 0.00 in0.0 mm 0.00 in0.0 mm 0.00 in0.0 mm
03:55 PM 97.2°F36.2°C 52.0°F11.1°C 22% 7.0 mph W11.3 kmh W 17.0 mph27.4 kmh 29.58 in1001.7 mb 0.00 in0.0 mm 0.00 in0.0 mm 0.00 in0.0 mm
04:00 PM 97.2°F36.2°C 52.0°F11.1°C 22% 7.0 mph W11.3 kmh W 17.0 mph27.4 kmh 29.58 in1001.7 mb 0.00 in0.0 mm 0.00 in0.0 mm 0.00 in0.0 mm
04:05 PM 97.1°F36.2°C 51.9°F11.1°C 22% 8.0 mph W12.9 kmh W 17.0 mph27.4 kmh 29.58 in1001.7 mb 0.00 in0.0 mm 0.00 in0.0 mm 0.00 in0.0 mm
04:10 PM 96.8°F36.0°C 51.7°F10.9°C 22% 9.0 mph WNW14.5 kmh WNW 16.0 mph25.7 kmh 29.58 in1001.7 mb 0.00 in0.0 mm 0.00 in0.0 mm 0.00 in0.0 mm
04:15 PM 96.7°F35.9°C 51.6°F10.9°C 22% 8.0 mph W12.9 kmh W 17.0 mph27.4 kmh 29.58 in1001.7 mb 0.00 in0.0 mm 0.00 in0.0 mm 0.00 in0.0 mm
04:20 PM 96.4°F35.8°C 51.4°F10.8°C 22% 8.0 mph W12.9 kmh W 17.0 mph27.4 kmh 29.58 in1001.7 mb 0.00 in0.0 mm 0.00 in0.0 mm 0.00 in0.0 mm
04:25 PM 96.1°F35.6°C 51.1°F10.6°C 22% 9.0 mph W14.5 kmh W 17.0 mph27.4 kmh 29.58 in1001.7 mb 0.00 in0.0 mm 0.00 in0.0 mm 0.00 in0.0 mm
04:30 PM 96.1°F35.6°C 51.1°F10.6°C 22% 9.0 mph W14.5 kmh W 16.0 mph25.7 kmh 29.58 in1001.7 mb 0.00 in0.0 mm 0.00 in0.0 mm 0.00 in0.0 mm
04:35 PM 96.1°F35.6°C 51.1°F10.6°C 22% 8.0 mph W12.9 kmh W 17.0 mph27.4 kmh 29.58 in1001.7 mb 0.00 in0.0 mm 0.00 in0.0 mm 0.00 in0.0 mm
04:40 PM 96.2°F35.7°C 51.2°F10.7°C 22% 7.0 mph W11.3 kmh W 17.0 mph27.4 kmh 29.58 in1001.7 mb 0.00 in0.0 mm 0.00 in0.0 mm 0.00 in0.0 mm
04:45 PM 96.5°F35.8°C 51.4°F10.8°C 22% 6.0 mph W9.7 kmh W 14.0 mph22.5 kmh 29.58 in1001.7 mb 0.00 in0.0 mm 0.00 in0.0 mm 0.00 in0.0 mm
04:50 PM 96.7°F35.9°C 51.6°F10.9°C 22% 7.0 mph WNW11.3 kmh WNW 14.0 mph22.5 kmh 29.58 in1001.7 mb 0.00 in0.0 mm 0.00 in0.0 mm 0.00 in0.0 mm
04:55 PM 96.7°F35.9°C 51.6°F10.9°C 22% 7.0 mph WNW11.3 kmh WNW 16.0 mph25.7 kmh 29.57 in1001.4 mb 0.00 in0.0 mm 0.00 in0.0 mm 0.00 in0.0 mm
05:00 PM 96.4°F35.8°C 51.4°F10.8°C 22% 8.0 mph WNW12.9 kmh WNW 16.0 mph25.7 kmh 29.57 in1001.4 mb 0.00 in0.0 mm 0.00 in0.0 mm 0.00 in0.0 mm
05:05 PM 96.1°F35.6°C 51.1°F10.6°C 22% 8.0 mph WNW12.9 kmh WNW 15.0 mph24.1 kmh 29.57 in1001.4 mb 0.00 in0.0 mm 0.00 in0.0 mm 0.00 in0.0 mm
05:10 PM 96.1°F35.6°C 51.1°F10.6°C 22% 7.0 mph WNW11.3 kmh WNW 15.0 mph24.1 kmh 29.58 in1001.7 mb 0.00 in0.0 mm 0.00 in0.0 mm 0.00 in0.0 mm
05:15 PM 96.1°F35.6°C 51.1°F10.6°C 22% 8.0 mph W12.9 kmh W 14.0 mph22.5 kmh 29.58 in1001.7 mb 0.00 in0.0 mm 0.00 in0.0 mm 0.00 in0.0 mm
05:20 PM 95.9°F35.5°C 49.7°F9.8°C 21% 8.0 mph W12.9 kmh W 14.0 mph22.5 kmh 29.58 in1001.7 mb 0.00 in0.0 mm 0.00 in0.0 mm 0.00 in0.0 mm
05:25 PM 95.7°F35.4°C 50.8°F10.4°C 22% 9.0 mph W14.5 kmh W 18.0 mph29.0 kmh 29.58 in1001.7 mb 0.00 in0.0 mm 0.00 in0.0 mm 0.00 in0.0 mm
05:30 PM 95.6°F35.3°C 49.4°F9.7°C 21% 8.0 mph W12.9 kmh W 18.0 mph29.0 kmh 29.58 in1001.7 mb 0.00 in0.0 mm 0.00 in0.0 mm 0.00 in0.0 mm
05:35 PM 95.5°F35.3°C 49.4°F9.7°C 21% 8.0 mph W12.9 kmh W 15.0 mph24.1 kmh 29.58 in1001.7 mb 0.00 in0.0 mm 0.00 in0.0 mm 0.00 in0.0 mm
05:40 PM 95.4°F35.2°C 49.3°F9.6°C 21% 8.0 mph W12.9 kmh W 15.0 mph24.1 kmh 29.59 in1002.0 mb 0.00 in0.0 mm 0.00 in0.0 mm 0.00 in0.0 mm
05:45 PM 95.2°F35.1°C 49.1°F9.5°C 21% 8.0 mph W12.9 kmh W 14.0 mph22.5 kmh 29.59 in1002.0 mb 0.00 in0.0 mm 0.00 in0.0 mm 0.00 in0.0 mm
05:50 PM 95.0°F35.0°C 48.9°F9.4°C 21% 7.0 mph W11.3 kmh W 12.0 mph19.3 kmh 29.59 in1002.0 mb 0.00 in0.0 mm 0.00 in0.0 mm 0.00 in0.0 mm
05:55 PM 94.6°F34.8°C 49.9°F9.9°C 22% 8.0 mph W12.9 kmh W 16.0 mph25.7 kmh 29.59 in1002.0 mb 0.00 in0.0 mm 0.00 in0.0 mm 0.00 in0.0 mm
06:00 PM 94.3°F34.6°C 49.6°F9.8°C 22% 8.0 mph W12.9 kmh W 16.0 mph25.7 kmh 29.59 in1002.0 mb 0.00 in0.0 mm 0.00 in0.0 mm 0.00 in0.0 mm
06:05 PM 93.9°F34.4°C 49.3°F9.6°C 22% 7.0 mph W11.3 kmh W 14.0 mph22.5 kmh 29.59 in1002.0 mb 0.00 in0.0 mm 0.00 in0.0 mm 0.00 in0.0 mm
06:10 PM 93.6°F34.2°C 49.0°F9.4°C 22% 8.0 mph W12.9 kmh W 15.0 mph24.1 kmh 29.59 in1002.0 mb 0.00 in0.0 mm 0.00 in0.0 mm 0.00 in0.0 mm
06:15 PM 93.3°F34.1°C 48.8°F9.3°C 22% 8.0 mph W12.9 kmh W 15.0 mph24.1 kmh 29.59 in1002.0 mb 0.00 in0.0 mm 0.00 in0.0 mm 0.00 in0.0 mm
06:20 PM 93.1°F33.9°C 49.8°F9.9°C 23% 7.0 mph WNW11.3 kmh WNW 15.0 mph24.1 kmh 29.59 in1002.0 mb 0.00 in0.0 mm 0.00 in0.0 mm 0.00 in0.0 mm
06:25 PM 92.9°F33.8°C 49.6°F9.8°C 23% 7.0 mph W11.3 kmh W 15.0 mph24.1 kmh 29.59 in1002.0 mb 0.00 in0.0 mm 0.00 in0.0 mm 0.00 in0.0 mm
06:30 PM 92.7°F33.7°C 49.5°F9.7°C 23% 6.0 mph W9.7 kmh W 12.0 mph19.3 kmh 29.59 in1002.0 mb 0.00 in0.0 mm 0.00 in0.0 mm 0.00 in0.0 mm
06:35 PM 92.5°F33.6°C 49.3°F9.6°C 23% 6.0 mph WNW9.7 kmh WNW 12.0 mph19.3 kmh 29.59 in1002.0 mb 0.00 in0.0 mm 0.00 in0.0 mm 0.00 in0.0 mm
06:40 PM 92.3°F33.5°C 49.1°F9.5°C 23% 7.0 mph WNW11.3 kmh WNW 12.0 mph19.3 kmh 29.59 in1002.0 mb 0.00 in0.0 mm 0.00 in0.0 mm 0.00 in0.0 mm
06:45 PM 92.2°F33.4°C 49.1°F9.5°C 23% 7.0 mph WNW11.3 kmh WNW 13.0 mph20.9 kmh 29.59 in1002.0 mb 0.00 in0.0 mm 0.00 in0.0 mm 0.00 in0.0 mm
06:50 PM 92.0°F33.3°C 48.9°F9.4°C 23% 7.0 mph W11.3 kmh W 13.0 mph20.9 kmh 29.60 in1002.4 mb 0.00 in0.0 mm 0.00 in0.0 mm 0.00 in0.0 mm
06:55 PM 91.9°F33.3°C 50.0°F10.0°C 24% 6.0 mph W9.7 kmh W 12.0 mph19.3 kmh 29.60 in1002.4 mb 0.00 in0.0 mm 0.00 in0.0 mm 0.00 in0.0 mm
07:00 PM 91.7°F33.2°C 49.8°F9.9°C 24% 6.0 mph W9.7 kmh W 12.0 mph19.3 kmh 29.60 in1002.4 mb 0.00 in0.0 mm 0.00 in0.0 mm 0.00 in0.0 mm
07:05 PM 91.6°F33.1°C 49.7°F9.8°C 24% 6.0 mph WNW9.7 kmh WNW 13.0 mph20.9 kmh 29.60 in1002.4 mb 0.00 in0.0 mm 0.00 in0.0 mm 0.00 in0.0 mm
07:10 PM 91.4°F33.0°C 49.5°F9.7°C 24% 6.0 mph WNW9.7 kmh WNW 13.0 mph20.9 kmh 29.60 in1002.4 mb 0.00 in0.0 mm 0.00 in0.0 mm 0.00 in0.0 mm
07:15 PM 91.4°F33.0°C 49.5°F9.7°C 24% 6.0 mph W9.7 kmh W 11.0 mph17.7 kmh 29.60 in1002.4 mb 0.00 in0.0 mm 0.00 in0.0 mm 0.00 in0.0 mm
07:20 PM 91.3°F32.9°C 49.4°F9.7°C 24% 5.0 mph W8.0 kmh W 11.0 mph17.7 kmh 29.60 in1002.4 mb 0.00 in0.0 mm 0.00 in0.0 mm 0.00 in0.0 mm
07:25 PM 91.2°F32.9°C 49.4°F9.7°C 24% 5.0 mph W8.0 kmh W 11.0 mph17.7 kmh 29.61 in1002.7 mb 0.00 in0.0 mm 0.00 in0.0 mm 0.00 in0.0 mm
07:30 PM 91.1°F32.8°C 49.3°F9.6°C 24% 6.0 mph W9.7 kmh W 15.0 mph24.1 kmh 29.61 in1002.7 mb 0.00 in0.0 mm 0.00 in0.0 mm 0.00 in0.0 mm
07:35 PM 91.1°F32.8°C 49.3°F9.6°C 24% 6.0 mph W9.7 kmh W 15.0 mph24.1 kmh 29.61 in1002.7 mb 0.00 in0.0 mm 0.00 in0.0 mm 0.00 in0.0 mm
07:40 PM 91.0°F32.8°C 49.2°F9.6°C 24% 5.0 mph W8.0 kmh W 10.0 mph16.1 kmh 29.61 in1002.7 mb 0.00 in0.0 mm 0.00 in0.0 mm 0.00 in0.0 mm
07:45 PM 90.9°F32.7°C 49.1°F9.5°C 24% 5.0 mph W8.0 kmh W 10.0 mph16.1 kmh 29.61 in1002.7 mb 0.00 in0.0 mm 0.00 in0.0 mm 0.00 in0.0 mm
07:50 PM 90.8°F32.7°C 49.0°F9.4°C 24% 4.0 mph W6.4 kmh W 9.0 mph14.5 kmh 29.61 in1002.7 mb 0.00 in0.0 mm 0.00 in0.0 mm 0.00 in0.0 mm
07:55 PM 90.7°F32.6°C 48.9°F9.4°C 24% 4.0 mph W6.4 kmh W 11.0 mph17.7 kmh 29.62 in1003.0 mb 0.00 in0.0 mm 0.00 in0.0 mm 0.00 in0.0 mm
08:00 PM 90.7°F32.6°C 48.9°F9.4°C 24% 4.0 mph WSW6.4 kmh WSW 11.0 mph17.7 kmh 29.62 in1003.0 mb 0.00 in0.0 mm 0.00 in0.0 mm 0.00 in0.0 mm
08:05 PM 90.5°F32.5°C 52.0°F11.1°C 27% 4.0 mph SW6.4 kmh SW 12.0 mph19.3 kmh 29.63 in1003.4 mb 0.00 in0.0 mm 0.00 in0.0 mm 0.00 in0.0 mm
08:10 PM 89.4°F31.9°C 56.5°F13.6°C 33% 7.0 mph SSW11.3 kmh SSW 16.0 mph25.7 kmh 29.63 in1003.4 mb 0.00 in0.0 mm 0.00 in0.0 mm 0.00 in0.0 mm
08:15 PM 87.9°F31.1°C 56.0°F13.3°C 34% 8.0 mph SSW12.9 kmh SSW 16.0 mph25.7 kmh 29.63 in1003.4 mb 0.00 in0.0 mm 0.00 in0.0 mm 0.00 in0.0 mm
08:20 PM 86.6°F30.3°C 55.7°F13.2°C 35% 7.0 mph SSW11.3 kmh SSW 14.0 mph22.5 kmh 29.63 in1003.4 mb 0.00 in0.0 mm 0.00 in0.0 mm 0.00 in0.0 mm
08:25 PM 85.7°F29.8°C 55.7°F13.2°C 36% 6.0 mph SSW9.7 kmh SSW 13.0 mph20.9 kmh 29.63 in1003.4 mb 0.00 in0.0 mm 0.00 in0.0 mm 0.00 in0.0 mm
08:30 PM 85.1°F29.5°C 55.1°F12.8°C 36% 6.0 mph SSW9.7 kmh SSW 13.0 mph20.9 kmh 29.63 in1003.4 mb 0.00 in0.0 mm 0.00 in0.0 mm 0.00 in0.0 mm
08:35 PM 84.7°F29.3°C 54.8°F12.7°C 36% 5.0 mph SSW8.0 kmh SSW 10.0 mph16.1 kmh 29.63 in1003.4 mb 0.00 in0.0 mm 0.00 in0.0 mm 0.00 in0.0 mm
08:40 PM 84.4°F29.1°C 55.3°F12.9°C 37% 6.0 mph SSW9.7 kmh SSW 15.0 mph24.1 kmh 29.64 in1003.7 mb 0.00 in0.0 mm 0.00 in0.0 mm 0.00 in0.0 mm
08:45 PM 84.2°F29.0°C 55.1°F12.8°C 37% 7.0 mph S11.3 kmh S 15.0 mph24.1 kmh 29.64 in1003.7 mb 0.00 in0.0 mm 0.00 in0.0 mm 0.00 in0.0 mm
08:50 PM 84.1°F28.9°C 55.7°F13.2°C 38% 7.0 mph S11.3 kmh S 13.0 mph20.9 kmh 29.64 in1003.7 mb 0.00 in0.0 mm 0.00 in0.0 mm 0.00 in0.0 mm
08:55 PM 83.9°F28.8°C 55.6°F13.1°C 38% 7.0 mph S11.3 kmh S 14.0 mph22.5 kmh 29.65 in1004.1 mb 0.00 in0.0 mm 0.00 in0.0 mm 0.00 in0.0 mm
09:00 PM 83.7°F28.7°C 56.1°F13.4°C 39% 7.0 mph SSW11.3 kmh SSW 14.0 mph22.5 kmh 29.65 in1004.1 mb 0.00 in0.0 mm 0.00 in0.0 mm 0.00 in0.0 mm
09:05 PM 83.5°F28.6°C 55.9°F13.3°C 39% 6.0 mph S9.7 kmh S 11.0 mph17.7 kmh 29.65 in1004.1 mb 0.00 in0.0 mm 0.00 in0.0 mm 0.00 in0.0 mm
09:10 PM 83.3°F28.5°C 56.5°F13.6°C 40% 6.0 mph S9.7 kmh S 11.0 mph17.7 kmh 29.65 in1004.1 mb 0.00 in0.0 mm 0.00 in0.0 mm 0.00 in0.0 mm
09:15 PM 83.2°F28.4°C 57.1°F13.9°C 41% 6.0 mph S9.7 kmh S 11.0 mph17.7 kmh 29.66 in1004.4 mb 0.00 in0.0 mm 0.00 in0.0 mm 0.00 in0.0 mm
09:20 PM 83.1°F28.4°C 57.6°F14.2°C 42% 5.0 mph S8.0 kmh S 9.0 mph14.5 kmh 29.66 in1004.4 mb 0.00 in0.0 mm 0.00 in0.0 mm 0.00 in0.0 mm
09:25 PM 83.0°F28.3°C 57.5°F14.2°C 42% 4.0 mph SSE6.4 kmh SSE 8.0 mph12.9 kmh 29.66 in1004.4 mb 0.00 in0.0 mm 0.00 in0.0 mm 0.00 in0.0 mm
09:30 PM 82.9°F28.3°C 58.1°F14.5°C 43% 4.0 mph SSE6.4 kmh SSE 8.0 mph12.9 kmh 29.66 in1004.4 mb 0.00 in0.0 mm 0.00 in0.0 mm 0.00 in0.0 mm
09:35 PM 82.7°F28.2°C 57.9°F14.4°C 43% 5.0 mph SSE8.0 kmh SSE 13.0 mph20.9 kmh 29.66 in1004.4 mb 0.00 in0.0 mm 0.00 in0.0 mm 0.00 in0.0 mm
09:40 PM 82.5°F28.1°C 58.4°F14.7°C 44% 6.0 mph SSE9.7 kmh SSE 13.0 mph20.9 kmh 29.66 in1004.4 mb 0.00 in0.0 mm 0.00 in0.0 mm 0.00 in0.0 mm
09:45 PM 82.5°F28.1°C 58.4°F14.7°C 44% 6.0 mph S9.7 kmh S 13.0 mph20.9 kmh 29.66 in1004.4 mb 0.00 in0.0 mm 0.00 in0.0 mm 0.00 in0.0 mm
09:50 PM 82.4°F28.0°C 58.3°F14.6°C 44% 6.0 mph S9.7 kmh S 13.0 mph20.9 kmh 29.66 in1004.4 mb 0.00 in0.0 mm 0.00 in0.0 mm 0.00 in0.0 mm
09:55 PM 82.4°F28.0°C 58.3°F14.6°C 44% 4.0 mph S6.4 kmh S 9.0 mph14.5 kmh 29.66 in1004.4 mb 0.00 in0.0 mm 0.00 in0.0 mm 0.00 in0.0 mm
10:00 PM 82.4°F28.0°C 58.3°F14.6°C 44% 4.0 mph S6.4 kmh S 9.0 mph14.5 kmh 29.66 in1004.4 mb 0.00 in0.0 mm 0.00 in0.0 mm 0.00 in0.0 mm
10:05 PM 82.4°F28.0°C 58.3°F14.6°C 44% 4.0 mph S6.4 kmh S 9.0 mph14.5 kmh 29.66 in1004.4 mb 0.00 in0.0 mm 0.00 in0.0 mm 0.00 in0.0 mm
10:10 PM 82.3°F27.9°C 58.2°F14.6°C 44% 4.0 mph S6.4 kmh S 9.0 mph14.5 kmh 29.66 in1004.4 mb 0.00 in0.0 mm 0.00 in0.0 mm 0.00 in0.0 mm
10:15 PM 82.3°F27.9°C 58.2°F14.6°C 44% 4.0 mph S6.4 kmh S 7.0 mph11.3 kmh 29.66 in1004.4 mb 0.00 in0.0 mm 0.00 in0.0 mm 0.00 in0.0 mm
10:20 PM 82.1°F27.8°C 58.7°F14.8°C 45% 5.0 mph S8.0 kmh S 10.0 mph16.1 kmh 29.66 in1004.4 mb 0.00 in0.0 mm 0.00 in0.0 mm 0.00 in0.0 mm
10:25 PM 82.0°F27.8°C 59.2°F15.1°C 46% 5.0 mph S8.0 kmh S 10.0 mph16.1 kmh 29.66 in1004.4 mb 0.00 in0.0 mm 0.00 in0.0 mm 0.00 in0.0 mm
10:30 PM 81.8°F27.7°C 59.0°F15.0°C 46% 5.0 mph S8.0 kmh S 11.0 mph17.7 kmh 29.66 in1004.4 mb 0.00 in0.0 mm 0.00 in0.0 mm 0.00 in0.0 mm
10:35 PM 81.6°F27.6°C 58.8°F14.9°C 46% 5.0 mph SSE8.0 kmh SSE 11.0 mph17.7 kmh 29.66 in1004.4 mb 0.00 in0.0 mm 0.00 in0.0 mm 0.00 in0.0 mm
10:40 PM 81.5°F27.5°C 59.3°F15.2°C 47% 5.0 mph SSE8.0 kmh SSE 9.0 mph14.5 kmh 29.66 in1004.4 mb 0.00 in0.0 mm 0.00 in0.0 mm 0.00 in0.0 mm
10:45 PM 81.4°F27.4°C 59.2°F15.1°C 47% 4.0 mph SSE6.4 kmh SSE 8.0 mph12.9 kmh 29.66 in1004.4 mb 0.00 in0.0 mm 0.00 in0.0 mm 0.00 in0.0 mm
10:50 PM 81.3°F27.4°C 59.7°F15.4°C 48% 4.0 mph S6.4 kmh S 9.0 mph14.5 kmh 29.66 in1004.4 mb 0.00 in0.0 mm 0.00 in0.0 mm 0.00 in0.0 mm
10:55 PM 81.2°F27.3°C 59.6°F15.3°C 48% 4.0 mph SSE6.4 kmh SSE 10.0 mph16.1 kmh 29.67 in1004.7 mb 0.00 in0.0 mm 0.00 in0.0 mm 0.00 in0.0 mm
11:00 PM 81.1°F27.3°C 59.6°F15.3°C 48% 5.0 mph SE8.0 kmh SE 11.0 mph17.7 kmh 29.67 in1004.7 mb 0.00 in0.0 mm 0.00 in0.0 mm 0.00 in0.0 mm
11:05 PM 81.1°F27.3°C 59.6°F15.3°C 48% 6.0 mph SE9.7 kmh SE 12.0 mph19.3 kmh 29.67 in1004.7 mb 0.00 in0.0 mm 0.00 in0.0 mm 0.00 in0.0 mm
11:10 PM 81.1°F27.3°C 59.6°F15.3°C 48% 6.0 mph SSE9.7 kmh SSE 12.0 mph19.3 kmh 29.66 in1004.4 mb 0.00 in0.0 mm 0.00 in0.0 mm 0.00 in0.0 mm
11:15 PM 81.1°F27.3°C 59.6°F15.3°C 48% 5.0 mph SSE8.0 kmh SSE 10.0 mph16.1 kmh 29.66 in1004.4 mb 0.00 in0.0 mm 0.00 in0.0 mm 0.00 in0.0 mm
11:20 PM 81.1°F27.3°C 59.6°F15.3°C 48% 5.0 mph S8.0 kmh S 9.0 mph14.5 kmh 29.67 in1004.7 mb 0.00 in0.0 mm 0.00 in0.0 mm 0.00 in0.0 mm
11:25 PM 81.1°F27.3°C 59.6°F15.3°C 48% 5.0 mph S8.0 kmh S 8.0 mph12.9 kmh 29.66 in1004.4 mb 0.00 in0.0 mm 0.00 in0.0 mm 0.00 in0.0 mm
11:30 PM 81.1°F27.3°C 59.6°F15.3°C 48% 6.0 mph S9.7 kmh S 11.0 mph17.7 kmh 29.66 in1004.4 mb 0.00 in0.0 mm 0.00 in0.0 mm 0.00 in0.0 mm
11:35 PM 81.0°F27.2°C 59.5°F15.3°C 48% 6.0 mph S9.7 kmh S 12.0 mph19.3 kmh 29.66 in1004.4 mb 0.00 in0.0 mm 0.00 in0.0 mm 0.00 in0.0 mm
11:40 PM 81.0°F27.2°C 59.5°F15.3°C 48% 7.0 mph S11.3 kmh S 12.0 mph19.3 kmh 29.67 in1004.7 mb 0.00 in0.0 mm 0.00 in0.0 mm 0.00 in0.0 mm
11:45 PM 81.0°F27.2°C 59.5°F15.3°C 48% 6.0 mph S9.7 kmh S 11.0 mph17.7 kmh 29.67 in1004.7 mb 0.00 in0.0 mm 0.00 in0.0 mm 0.00 in0.0 mm
11:50 PM 81.0°F27.2°C 59.5°F15.3°C 48% 4.0 mph S6.4 kmh S 9.0 mph14.5 kmh 29.67 in1004.7 mb 0.00 in0.0 mm 0.00 in0.0 mm 0.00 in0.0 mm
11:55 PM 81.0°F27.2°C 58.9°F14.9°C 47% 5.0 mph S8.0 kmh S 10.0 mph16.1 kmh 29.66 in1004.4 mb 0.00 in0.0 mm 0.00 in0.0 mm 0.00 in0.0 mm